createdAt,value
2019-02-17T00:00:57.910Z,13.73
2019-02-17T00:04:02.616Z,13.77
2019-02-17T00:07:07.055Z,13.77
2019-02-17T00:10:11.485Z,15.50
2019-02-17T00:13:16.196Z,13.80
2019-02-17T00:16:20.935Z,15.13
2019-02-17T00:19:25.653Z,14.07
2019-02-17T00:22:30.090Z,13.87
2019-02-17T00:25:34.525Z,14.60
2019-02-17T00:28:38.967Z,14.03
2019-02-17T00:31:43.418Z,13.30
2019-02-17T00:34:48.185Z,14.43
2019-02-17T00:37:52.626Z,13.97
2019-02-17T00:40:57.074Z,14.90
2019-02-17T00:44:01.509Z,15.13
2019-02-17T00:47:05.956Z,13.97
2019-02-17T00:50:11.429Z,14.97
2019-02-17T00:53:16.365Z,14.20
2019-02-17T00:56:21.087Z,13.23
2019-02-17T00:59:25.525Z,14.13
2019-02-17T01:02:30.254Z,13.00
2019-02-17T01:05:34.978Z,14.03
2019-02-17T01:08:39.691Z,13.90
2019-02-17T01:11:44.438Z,13.53
2019-02-17T01:14:48.869Z,14.50
2019-02-17T01:17:53.601Z,13.57
2019-02-17T01:20:58.324Z,13.80
2019-02-17T01:24:02.769Z,12.90
2019-02-17T01:27:07.542Z,14.57
2019-02-17T01:30:15.677Z,14.10
2019-02-17T01:33:20.128Z,14.00
2019-02-17T01:36:24.550Z,13.97
2019-02-17T01:39:29.274Z,14.40
2019-02-17T01:42:33.710Z,13.60
2019-02-17T01:45:38.425Z,13.77
2019-02-17T01:48:42.868Z,13.37
2019-02-17T01:51:47.580Z,13.97
2019-02-17T01:54:52.322Z,13.47
2019-02-17T01:57:56.756Z,13.03
2019-02-17T02:01:01.459Z,12.10
2019-02-17T02:04:05.898Z,12.37
2019-02-17T02:07:10.327Z,13.33
2019-02-17T02:10:15.443Z,13.53
2019-02-17T02:13:19.933Z,13.27
2019-02-17T02:16:24.369Z,14.10
2019-02-17T02:19:29.129Z,12.90
2019-02-17T02:22:33.567Z,13.20
2019-02-17T02:25:38.016Z,13.10
2019-02-17T02:28:42.459Z,12.80
2019-02-17T02:31:46.907Z,12.70
2019-02-17T02:34:51.656Z,12.33
2019-02-17T02:37:56.113Z,14.67
2019-02-17T02:41:00.549Z,13.73
2019-02-17T02:44:05.336Z,13.70
2019-02-17T02:47:09.769Z,12.90
2019-02-17T02:50:14.593Z,13.77
2019-02-17T02:53:19.323Z,13.70
2019-02-17T02:56:23.767Z,13.10
2019-02-17T02:59:28.475Z,13.00
2019-02-17T03:02:33.213Z,12.57
2019-02-17T03:05:39.297Z,13.23
2019-02-17T03:08:43.749Z,12.20
2019-02-17T03:11:48.173Z,13.03
2019-02-17T03:14:52.949Z,13.07
2019-02-17T03:17:57.390Z,13.00
2019-02-17T03:21:01.837Z,13.67
2019-02-17T03:24:06.531Z,12.20
2019-02-17T03:27:10.966Z,12.83
2019-02-17T03:30:15.424Z,13.60
2019-02-17T03:33:19.846Z,13.77
2019-02-17T03:36:24.300Z,13.10
2019-02-17T03:39:29.060Z,13.20
2019-02-17T03:42:33.491Z,13.13
2019-02-17T03:45:37.935Z,13.37
2019-02-17T03:48:42.632Z,12.70
2019-02-17T03:51:47.077Z,13.70
2019-02-17T03:54:51.514Z,12.50
2019-02-17T03:57:56.210Z,13.70
2019-02-17T04:01:00.652Z,14.37
2019-02-17T04:04:05.091Z,13.23
2019-02-17T04:07:09.536Z,12.40
2019-02-17T04:10:14.317Z,12.73
2019-02-17T04:13:19.047Z,12.90
2019-02-17T04:16:23.489Z,13.13
2019-02-17T04:19:28.195Z,13.53
2019-02-17T04:22:32.637Z,13.10
2019-02-17T04:25:37.086Z,13.67
2019-02-17T04:28:41.778Z,13.23
2019-02-17T04:31:46.219Z,13.73
2019-02-17T04:34:50.936Z,13.27
2019-02-17T04:37:55.380Z,13.60
2019-02-17T04:40:59.828Z,13.47
2019-02-17T04:44:04.271Z,13.93
2019-02-17T04:47:09.034Z,13.23
2019-02-17T04:50:13.545Z,12.30
2019-02-17T04:53:17.975Z,13.13
2019-02-17T04:56:22.419Z,14.00
2019-02-17T04:59:26.855Z,13.33
2019-02-17T05:02:31.562Z,13.80
2019-02-17T05:05:36.291Z,13.23
2019-02-17T05:08:41.026Z,12.17
2019-02-17T05:11:45.770Z,13.23
2019-02-17T05:14:50.488Z,13.27
2019-02-17T05:17:54.933Z,13.03
2019-02-17T05:20:59.451Z,13.40
2019-02-17T05:24:04.173Z,13.97
2019-02-17T05:27:08.901Z,13.90
2019-02-17T05:30:13.402Z,13.83
2019-02-17T05:33:18.158Z,12.80
2019-02-17T05:36:22.881Z,13.13
2019-02-17T05:39:27.316Z,12.90
2019-02-17T05:42:32.035Z,13.50
2019-02-17T05:45:36.477Z,13.43
2019-02-17T05:48:40.920Z,13.20
2019-02-17T05:51:45.627Z,13.77
2019-02-17T05:54:50.581Z,12.93
2019-02-17T05:57:55.183Z,14.43
2019-02-17T06:01:03.709Z,13.40
2019-02-17T06:04:06.074Z,12.37
2019-02-17T06:07:10.514Z,13.57
2019-02-17T06:10:14.945Z,13.40
2019-02-17T06:13:19.658Z,13.87
2019-02-17T06:16:24.384Z,12.03
2019-02-17T06:19:28.825Z,12.73
2019-02-17T06:22:33.548Z,12.00
2019-02-17T06:25:37.976Z,12.50
2019-02-17T06:28:42.699Z,12.97
2019-02-17T06:31:47.159Z,12.53
2019-02-17T06:34:51.596Z,13.57
2019-02-17T06:37:56.043Z,12.57
2019-02-17T06:41:00.481Z,12.57
2019-02-17T06:44:04.982Z,13.40
2019-02-17T06:47:11.389Z,11.87
2019-02-17T06:50:15.822Z,12.00
2019-02-17T06:53:20.539Z,11.23
2019-02-17T06:56:41.763Z,11.70
2019-02-17T06:59:46.484Z,11.67
2019-02-17T07:02:50.941Z,11.57
2019-02-17T07:05:57.281Z,12.80
2019-02-17T07:09:01.800Z,12.87
2019-02-17T07:12:06.245Z,13.47
2019-02-17T07:15:10.754Z,13.40
2019-02-17T07:18:15.510Z,12.93
2019-02-17T07:21:20.224Z,14.00
2019-02-17T07:24:25.003Z,13.47
2019-02-17T07:27:29.525Z,13.43
2019-02-17T07:30:33.977Z,14.30
2019-02-17T07:33:38.734Z,14.80
2019-02-17T07:36:43.466Z,14.57
2019-02-17T07:39:47.934Z,15.13
2019-02-17T07:42:52.828Z,13.87
2019-02-17T07:45:57.276Z,18.00
2019-02-17T07:49:01.981Z,14.40
2019-02-17T07:52:06.727Z,14.40
2019-02-17T07:55:12.078Z,14.30
2019-02-17T07:58:16.524Z,13.57
2019-02-17T08:01:20.968Z,13.90
2019-02-17T08:04:25.416Z,14.83
2019-02-17T08:07:29.861Z,14.73
2019-02-17T08:10:34.799Z,14.83
2019-02-17T08:13:39.224Z,15.60
2019-02-17T08:16:43.673Z,13.93
2019-02-17T08:19:48.359Z,14.97
2019-02-17T08:22:52.801Z,14.47
2019-02-17T08:25:57.528Z,14.13
2019-02-17T08:29:01.966Z,13.37
2019-02-17T08:32:06.406Z,13.40
2019-02-17T08:35:11.519Z,14.53
2019-02-17T08:38:16.233Z,14.63
2019-02-17T08:41:20.680Z,13.90
2019-02-17T08:44:25.410Z,13.80
2019-02-17T08:47:29.830Z,14.73
2019-02-17T08:50:34.555Z,14.00
2019-02-17T08:53:38.989Z,14.03
2019-02-17T08:56:43.700Z,14.03
2019-02-17T08:59:48.148Z,14.67
2019-02-17T09:02:52.857Z,14.73
2019-02-17T09:05:57.586Z,14.03
2019-02-17T09:09:02.320Z,13.27
2019-02-17T09:12:06.757Z,13.17
2019-02-17T09:15:13.086Z,13.80
2019-02-17T09:18:17.519Z,13.17
2019-02-17T09:21:22.259Z,13.87
2019-02-17T09:24:26.691Z,14.03
2019-02-17T09:27:31.131Z,13.60
2019-02-17T09:30:35.606Z,13.43
2019-02-17T09:33:40.037Z,13.27
2019-02-17T09:36:44.788Z,13.53
2019-02-17T09:39:49.222Z,13.37
2019-02-17T09:42:53.720Z,13.10
2019-02-17T09:45:58.478Z,13.37
2019-02-17T09:49:03.205Z,12.80
2019-02-17T09:52:07.927Z,13.93
2019-02-17T09:55:12.654Z,12.97
2019-02-17T09:58:17.089Z,12.40
2019-02-17T10:01:21.538Z,12.50
2019-02-17T10:04:25.988Z,12.00
2019-02-17T10:07:30.512Z,12.67
2019-02-17T10:10:35.291Z,12.40
2019-02-17T10:13:39.746Z,12.90
2019-02-17T10:16:44.652Z,12.37
2019-02-17T10:19:49.092Z,13.33
2019-02-17T10:22:53.546Z,12.00
2019-02-17T10:25:57.996Z,11.50
2019-02-17T10:29:02.449Z,11.60
2019-02-17T10:32:06.900Z,11.57
2019-02-17T10:35:11.349Z,11.57
2019-02-17T10:38:16.131Z,10.97
2019-02-17T10:41:20.871Z,11.17
2019-02-17T10:44:25.317Z,11.37
2019-02-17T10:47:30.222Z,14.77
2019-02-17T10:50:34.954Z,11.90
2019-02-17T10:53:39.687Z,11.93
2019-02-17T10:56:44.413Z,11.90
2019-02-17T10:59:48.855Z,12.87
2019-02-17T11:02:53.671Z,12.87
2019-02-17T11:05:58.123Z,12.23
2019-02-17T11:09:03.048Z,11.80
2019-02-17T11:12:07.497Z,12.70
2019-02-17T11:15:20.570Z,12.83
2019-02-17T11:18:25.018Z,12.40
2019-02-17T11:21:29.468Z,12.50
2019-02-17T11:24:33.950Z,12.90
2019-02-17T11:27:38.398Z,12.90
2019-02-17T11:30:42.835Z,12.90
2019-02-17T11:33:47.628Z,13.60
2019-02-17T11:36:52.370Z,12.47
2019-02-17T11:39:56.821Z,12.57
2019-02-17T11:43:01.616Z,12.90
2019-02-17T11:46:06.060Z,12.00
2019-02-17T11:49:10.524Z,12.77
2019-02-17T11:52:15.429Z,12.23
2019-02-17T11:55:19.854Z,11.13
2019-02-17T11:58:24.308Z,11.73
2019-02-17T12:01:29.084Z,12.13
2019-02-17T12:04:33.537Z,11.77
2019-02-17T12:07:38.241Z,12.17
2019-02-17T12:10:42.680Z,11.93
2019-02-17T12:13:47.392Z,10.50
2019-02-17T12:16:52.123Z,10.53
2019-02-17T12:19:58.224Z,10.27
2019-02-17T12:23:06.734Z,10.82
2019-02-17T12:26:13.183Z,10.63
2019-02-17T12:29:19.538Z,9.67
2019-02-17T12:32:25.623Z,11.20
2019-02-17T12:35:30.332Z,10.03
2019-02-17T12:38:34.794Z,9.35
2019-02-17T12:41:39.232Z,9.10
2019-02-17T12:44:43.686Z,8.83
2019-02-17T12:47:57.462Z,8.85
2019-02-17T12:50:54.910Z,9.33
2019-02-17T12:53:59.360Z,9.45
2019-02-17T12:57:03.806Z,10.32
2019-02-17T13:00:15.734Z,10.15
2019-02-17T13:03:28.229Z,10.48
2019-02-17T13:06:26.783Z,11.45
2019-02-17T13:09:31.590Z,12.10
2019-02-17T13:12:36.320Z,11.05
2019-02-17T13:15:40.770Z,9.50
2019-02-17T13:18:45.229Z,10.10
2019-02-17T13:21:49.665Z,9.80
2019-02-17T13:24:54.421Z,10.18
2019-02-17T13:27:59.152Z,9.60
2019-02-17T13:31:03.603Z,9.48
2019-02-17T13:34:08.442Z,9.70
2019-02-17T13:37:12.855Z,9.93
2019-02-17T13:40:17.308Z,9.33
2019-02-17T13:43:21.746Z,8.75
2019-02-17T13:46:26.195Z,9.15
2019-02-17T13:49:30.928Z,8.13
2019-02-17T13:52:35.667Z,9.03
2019-02-17T13:55:40.186Z,8.70
2019-02-17T13:58:44.631Z,9.00
2019-02-17T14:01:49.083Z,7.55
2019-02-17T14:04:53.611Z,7.85
2019-02-17T14:07:58.302Z,10.48
2019-02-17T14:11:02.740Z,8.90
2019-02-17T14:14:07.201Z,10.48
2019-02-17T14:17:11.975Z,10.93
2019-02-17T14:20:16.432Z,11.88
2019-02-17T14:23:21.127Z,10.35
2019-02-17T14:26:25.668Z,10.80
2019-02-17T14:29:32.068Z,10.85
2019-02-17T14:32:36.441Z,10.63
2019-02-17T14:35:40.896Z,9.65
2019-02-17T14:38:45.351Z,9.20
2019-02-17T14:41:49.797Z,10.13
2019-02-17T14:44:54.251Z,9.53
2019-02-17T14:47:58.975Z,9.85
2019-02-17T14:51:03.712Z,9.50
2019-02-17T14:54:08.184Z,9.93
2019-02-17T14:57:12.961Z,10.08
2019-02-17T15:00:18.050Z,8.90
2019-02-17T15:03:22.501Z,8.77
2019-02-17T15:06:27.318Z,8.73
2019-02-17T15:09:34.755Z,8.77
2019-02-17T15:12:39.476Z,9.30
2019-02-17T15:15:44.217Z,9.33
2019-02-17T15:18:48.951Z,8.97
2019-02-17T15:21:53.676Z,8.43
2019-02-17T15:24:58.412Z,9.70
2019-02-17T15:28:02.857Z,11.60
2019-02-17T15:31:07.305Z,8.50
2019-02-17T15:34:18.441Z,7.83
2019-02-17T15:37:18.257Z,8.93
2019-02-17T15:40:23.538Z,8.80
2019-02-17T15:43:28.324Z,9.30
2019-02-17T15:46:32.772Z,8.33
2019-02-17T15:49:37.233Z,8.10
2019-02-17T15:52:42.005Z,8.87
2019-02-17T15:55:46.733Z,8.17
2019-02-17T15:58:51.176Z,9.27
2019-02-17T16:01:55.895Z,10.23
2019-02-17T16:05:00.342Z,12.90
2019-02-17T16:08:04.798Z,10.63
2019-02-17T16:11:09.573Z,10.10
2019-02-17T16:14:14.305Z,8.73
2019-02-17T16:17:18.753Z,7.77
2019-02-17T16:20:23.203Z,7.87
2019-02-17T16:23:27.979Z,7.00
2019-02-17T16:26:32.836Z,7.23
2019-02-17T16:29:37.541Z,6.40
2019-02-17T16:32:41.985Z,6.33
2019-02-17T16:35:46.441Z,6.63
2019-02-17T16:38:50.872Z,6.60
2019-02-17T16:41:55.321Z,6.47
2019-02-17T16:45:00.800Z,6.77
2019-02-17T16:48:05.933Z,6.50
2019-02-17T16:51:10.390Z,6.87
2019-02-17T16:54:15.190Z,7.60
2019-02-17T16:57:19.917Z,7.80
2019-02-17T17:00:25.674Z,7.13
2019-02-17T17:03:30.186Z,7.93
2019-02-17T17:06:34.943Z,8.07
2019-02-17T17:09:39.388Z,7.40
2019-02-17T17:12:43.903Z,6.50
2019-02-17T17:15:48.349Z,7.13
2019-02-17T17:18:53.130Z,6.80
2019-02-17T17:21:57.575Z,5.93
2019-02-17T17:25:02.020Z,6.20
2019-02-17T17:28:06.479Z,6.40
2019-02-17T17:31:10.930Z,5.67
2019-02-17T17:34:15.366Z,6.33
2019-02-17T17:37:19.891Z,6.50
2019-02-17T17:40:24.609Z,7.20
2019-02-17T17:43:29.359Z,7.37
2019-02-17T17:46:33.828Z,7.47
2019-02-17T17:49:38.463Z,8.17
2019-02-17T17:52:42.902Z,9.40
2019-02-17T17:55:47.330Z,10.47
2019-02-17T17:58:51.780Z,10.20
2019-02-17T18:01:56.227Z,10.27
2019-02-17T18:05:08.678Z,10.70
2019-02-17T18:08:07.082Z,10.50
2019-02-17T18:11:11.516Z,11.23
2019-02-17T18:14:16.238Z,10.83
2019-02-17T18:17:20.982Z,12.30
2019-02-17T18:20:25.697Z,11.77
2019-02-17T18:23:30.147Z,11.83
2019-02-17T18:26:34.749Z,11.57
2019-02-17T18:29:39.196Z,11.27
2019-02-17T18:32:43.662Z,11.13
2019-02-17T18:35:48.096Z,12.40
2019-02-17T18:38:52.868Z,12.67
2019-02-17T18:41:57.585Z,12.33
2019-02-17T18:45:02.031Z,12.57
2019-02-17T18:48:06.480Z,11.57
2019-02-17T18:51:10.908Z,12.00
2019-02-17T18:54:15.361Z,12.90
2019-02-17T18:57:19.807Z,13.80
2019-02-17T19:00:26.560Z,13.93
2019-02-17T19:03:31.318Z,14.23
2019-02-17T19:06:36.070Z,15.00
2019-02-17T19:09:40.777Z,15.47
2019-02-17T19:12:45.237Z,15.10
2019-02-17T19:15:49.670Z,16.10
2019-02-17T19:18:54.141Z,22.00
2019-02-17T19:21:58.986Z,18.40
2019-02-17T19:25:03.698Z,20.00
2019-02-17T19:28:08.225Z,15.43
2019-02-17T19:31:12.975Z,16.30
2019-02-17T19:34:17.701Z,16.33
2019-02-17T19:37:22.442Z,17.40
2019-02-17T19:40:27.159Z,16.77
2019-02-17T19:43:31.673Z,15.37
2019-02-17T19:46:36.421Z,12.03
2019-02-17T19:49:41.462Z,14.27
2019-02-17T19:52:51.827Z,13.63
2019-02-17T19:55:59.321Z,12.57
2019-02-17T19:59:05.502Z,12.23
2019-02-17T20:02:10.037Z,12.73
2019-02-17T20:05:19.087Z,15.27
2019-02-17T20:08:24.506Z,18.43
2019-02-17T20:11:29.307Z,16.87
2019-02-17T20:14:33.941Z,16.63
2019-02-17T20:17:38.382Z,17.73
2019-02-17T20:20:42.841Z,18.20
2019-02-17T20:23:47.302Z,12.93
2019-02-17T20:26:51.748Z,12.57
2019-02-17T20:29:56.196Z,10.97
2019-02-17T20:33:00.896Z,10.20
2019-02-17T20:36:05.336Z,10.03
2019-02-17T20:39:10.060Z,9.73
2019-02-17T20:42:14.503Z,8.37
2019-02-17T20:45:19.313Z,8.47
2019-02-17T20:48:23.750Z,8.50
2019-02-17T20:51:28.188Z,6.53
2019-02-17T20:54:32.644Z,7.43
2019-02-17T20:57:37.413Z,7.73
2019-02-17T21:00:41.859Z,7.87
2019-02-17T21:03:46.569Z,7.93
2019-02-17T21:06:51.012Z,6.53
2019-02-17T21:09:55.446Z,6.50
2019-02-17T21:12:59.954Z,6.17
2019-02-17T21:16:06.210Z,6.00
2019-02-17T21:19:10.954Z,6.63
2019-02-17T21:22:15.989Z,5.70
2019-02-17T21:25:21.485Z,5.80
2019-02-17T21:28:25.934Z,6.50
2019-02-17T21:31:30.502Z,6.33
2019-02-17T21:34:35.044Z,6.93
2019-02-17T21:37:40.035Z,6.23
2019-02-17T21:40:44.770Z,7.93
2019-02-17T21:43:49.379Z,6.37
2019-02-17T21:46:53.881Z,6.37
2019-02-17T21:49:58.672Z,6.30
2019-02-17T21:53:03.202Z,6.40
2019-02-17T21:56:08.064Z,5.57
2019-02-17T21:59:13.127Z,5.77
2019-02-17T22:02:17.755Z,5.43
2019-02-17T22:05:34.277Z,4.90
2019-02-17T22:08:34.100Z,5.23
2019-02-17T22:11:39.658Z,5.23
2019-02-17T22:14:44.379Z,4.87
2019-02-17T22:17:49.227Z,5.77
2019-02-17T22:20:53.664Z,6.77
2019-02-17T22:23:58.215Z,6.97
2019-02-17T22:27:02.601Z,7.90
2019-02-17T22:30:11.813Z,8.27
2019-02-17T22:33:16.226Z,7.00
2019-02-17T22:36:21.478Z,6.97
2019-02-17T22:39:25.913Z,7.50
2019-02-17T22:42:30.649Z,7.07
2019-02-17T22:45:35.098Z,6.63
2019-02-17T22:48:39.532Z,7.00
2019-02-17T22:51:43.975Z,6.37
2019-02-17T22:54:48.449Z,7.50
2019-02-17T22:57:52.892Z,7.43
2019-02-17T23:01:01.215Z,7.20
2019-02-17T23:04:06.051Z,7.47
2019-02-17T23:07:10.452Z,7.53
2019-02-17T23:10:14.959Z,8.23
2019-02-17T23:13:19.794Z,8.37
2019-02-17T23:16:24.229Z,8.33
2019-02-17T23:19:28.953Z,8.43
2019-02-17T23:22:33.397Z,8.03
2019-02-17T23:25:37.890Z,8.23
2019-02-17T23:28:42.339Z,8.23
2019-02-17T23:31:47.059Z,7.83
2019-02-17T23:34:51.503Z,8.53
2019-02-17T23:37:55.942Z,8.20
2019-02-17T23:41:00.372Z,8.60
2019-02-17T23:44:05.161Z,8.83
2019-02-17T23:47:09.608Z,9.17
2019-02-17T23:50:15.266Z,8.13
2019-02-17T23:53:19.962Z,8.00
2019-02-17T23:56:24.690Z,7.83
2019-02-17T23:59:29.138Z,8.47
